Cygnet Bay, Australia
Current Conditions -  °F | °C
As of 10:00 AM on Sunday 23 Nov 2014 (Local Time) from YCIN Reporting Station
Clear Clear  
Wind Chill: 99°   Ceiling: Unl
Heat Index: 99°   Visibility: NA
Dew Point: 59°   Wind: 10mph
Humidity: 27%   Direction: 290°WNW
Pressure: 29.8"   Gusts: NA
Location:  16.44°S, 123.01°E
Report Text: YCIN 230200Z AUTO 29009KT 240V310 //// // NCD 37/15 Q1009
Loading
Personal Weather Stations






























Interactive Weather Map New forecast layout! Learn more

10-Day Weather Forecast

Advertisements
Track Severe Weather on mobile